Time;durP1;ratioP1;P1;durP2;ratioP2;P2;SDS_P1;SDS_P2;PMS_P1;PMS_P2;Temp;Humidity;BMP_temperature;BMP_pressure;BME280_temperature;BME280_humidity;BME280_pressure;Samples;Min_cycle;Max_cycle;Signal;HPM_P1;HPM_P2
2022/01/04 00:01:20;;;;;;;17.48;7.18;;;;;;;;;;5003632;28;20040;-84
2022/01/04 00:03:46;;;;;;;13.25;5.72;;;;;;;;;;4994439;28;20025;-84
2022/01/04 00:06:12;;;;;;;10.18;4.05;;;;;;;;;;5015695;28;20034;-83
2022/01/04 00:08:38;;;;;;;7.78;3.60;;;;;;;;;;5016026;28;20033;-83
2022/01/04 00:11:17;;;;;;;8.32;3.42;;;;;;;;;;5015560;28;20382;-84
2022/01/04 00:13:43;;;;;;;5.53;2.90;;;;;;;;;;5011841;28;20097;-83
2022/01/04 00:16:10;;;;;;;4.13;3.22;;;;;;;;;;5015375;28;20267;-82
2022/01/04 00:18:37;;;;;;;5.35;3.25;;;;;;;;;;5015661;28;20053;-81
2022/01/04 00:21:03;;;;;;;9.80;4.13;;;;;;;;;;5015469;28;20025;-82
2022/01/04 00:23:29;;;;;;;8.13;4.00;;;;;;;;;;5033070;28;20041;-82
2022/01/04 00:25:54;;;;;;;5.68;3.33;;;;;;;;;;5035386;28;20029;-83
2022/01/04 00:28:20;;;;;;;5.07;2.83;;;;;;;;;;5035483;28;20478;-82
2022/01/04 00:30:45;;;;;;;9.38;4.68;;;;;;;;;;5022849;28;20036;-82
2022/01/04 00:33:13;;;;;;;8.70;3.33;;;;;;;;;;5035451;28;20026;-82
2022/01/04 00:35:39;;;;;;;8.20;3.42;;;;;;;;;;5034665;28;20029;-82
2022/01/04 00:38:05;;;;;;;6.40;3.85;;;;;;;;;;5017385;28;20022;-83
2022/01/04 00:40:31;;;;;;;6.88;3.15;;;;;;;;;;5035066;28;20032;-83
2022/01/04 00:43:00;;;;;;;5.13;2.85;;;;;;;;;;5035338;28;20044;-84
2022/01/04 00:45:26;;;;;;;10.35;4.15;;;;;;;;;;5035268;28;20511;-83
2022/01/04 00:50:22;;;;;;;8.73;4.43;;;;;;;;;;5035682;28;20493;-83
2022/01/04 00:52:48;;;;;;;8.80;3.38;;;;;;;;;;5035007;28;20026;-82
2022/01/04 00:55:14;;;;;;;5.25;3.17;;;;;;;;;;5017143;28;20099;-84
2022/01/04 00:57:40;;;;;;;5.75;2.75;;;;;;;;;;5034611;28;20481;-83
2022/01/04 01:00:14;;;;;;;6.75;3.20;;;;;;;;;;5034475;28;20029;-83
2022/01/04 01:02:39;;;;;;;5.55;2.90;;;;;;;;;;5034794;28;20041;-83
2022/01/04 01:05:06;;;;;;;9.00;3.28;;;;;;;;;;5034957;28;20103;-82
2022/01/04 01:07:33;;;;;;;6.35;2.90;;;;;;;;;;5034395;28;20048;-83
2022/01/04 01:12:30;;;;;;;7.22;4.15;;;;;;;;;;5034826;28;20032;-84
2022/01/04 01:14:55;;;;;;;5.72;3.13;;;;;;;;;;5016263;28;20029;-83
2022/01/04 01:17:21;;;;;;;7.22;3.38;;;;;;;;;;5034451;28;20026;-83
2022/01/04 01:19:47;;;;;;;6.72;3.10;;;;;;;;;;5016328;28;20029;-83
2022/01/04 01:22:12;;;;;;;6.10;2.45;;;;;;;;;;5034270;28;21483;-83
2022/01/04 01:24:38;;;;;;;5.82;2.83;;;;;;;;;;5034365;28;20092;-83
2022/01/04 01:27:04;;;;;;;6.55;2.90;;;;;;;;;;5034443;28;20036;-83
2022/01/04 01:29:29;;;;;;;13.23;2.60;;;;;;;;;;5034234;28;20033;-83
2022/01/04 01:31:55;;;;;;;5.80;2.45;;;;;;;;;;5034096;28;20060;-83
2022/01/04 01:34:20;;;;;;;4.32;2.42;;;;;;;;;;5016273;28;20025;-83
2022/01/04 01:36:46;;;;;;;5.10;2.70;;;;;;;;;;5034262;28;20035;-83
2022/01/04 01:39:12;;;;;;;3.72;2.20;;;;;;;;;;5033833;28;20435;-83
2022/01/04 01:41:38;;;;;;;4.40;2.88;;;;;;;;;;5034635;28;20112;-83
2022/01/04 01:44:05;;;;;;;4.20;1.98;;;;;;;;;;5016051;28;20450;-83
2022/01/04 01:46:31;;;;;;;3.80;2.22;;;;;;;;;;5016138;28;20555;-83
2022/01/04 01:48:56;;;;;;;4.22;2.22;;;;;;;;;;5033631;28;20029;-82
2022/01/04 01:51:26;;;;;;;3.80;2.03;;;;;;;;;;5034044;28;20040;-82
2022/01/04 01:53:52;;;;;;;7.10;2.47;;;;;;;;;;5033873;28;20473;-82
2022/01/04 01:56:18;;;;;;;3.30;2.08;;;;;;;;;;5033839;28;20068;-81
2022/01/04 01:58:44;;;;;;;6.20;2.30;;;;;;;;;;5033893;28;20048;-84
2022/01/04 02:01:11;;;;;;;4.38;2.13;;;;;;;;;;5033788;28;20021;-82
2022/01/04 02:03:40;;;;;;;5.25;2.58;;;;;;;;;;5015856;28;20120;-83
2022/01/04 02:06:06;;;;;;;5.05;1.88;;;;;;;;;;5033559;28;20079;-83
2022/01/04 02:08:31;;;;;;;4.00;2.10;;;;;;;;;;5033575;28;20069;-82
2022/01/04 02:10:58;;;;;;;6.35;2.38;;;;;;;;;;5033692;28;22474;-82
2022/01/04 02:13:25;;;;;;;7.13;2.00;;;;;;;;;;5015887;28;20025;-82
2022/01/04 02:15:55;;;;;;;4.07;2.10;;;;;;;;;;5015558;28;20025;-82
2022/01/04 02:18:20;;;;;;;;;;;;;;;;;;5033822;28;20029;-82
2022/01/04 02:20:46;;;;;;;1.70;1.20;;;;;;;;;;5033401;28;19913;-82
2022/01/04 02:23:12;;;;;;;3.00;1.70;;;;;;;;;;5033264;28;20096;-83
2022/01/04 02:25:39;;;;;;;3.92;2.13;;;;;;;;;;5033699;28;20029;-84
2022/01/04 02:28:05;;;;;;;4.22;2.00;;;;;;;;;;5032306;28;20035;-83
2022/01/04 02:30:31;;;;;;;5.78;2.50;;;;;;;;;;5033789;28;20025;-82
2022/01/04 02:32:57;;;;;;;4.07;2.75;;;;;;;;;;5033607;28;20529;-83
2022/01/04 02:35:26;;;;;;;4.45;2.35;;;;;;;;;;5031463;28;20112;-82
2022/01/04 02:37:56;;;;;;;4.97;2.30;;;;;;;;;;5015268;28;20029;-83
2022/01/04 02:40:22;;;;;;;4.55;2.45;;;;;;;;;;5027418;28;20107;-83
2022/01/04 02:42:47;;;;;;;6.57;2.83;;;;;;;;;;5015271;28;20871;-82
2022/01/04 02:45:13;;;;;;;7.43;2.83;;;;;;;;;;5015200;28;20048;-83
2022/01/04 02:47:39;;;;;;;5.28;2.50;;;;;;;;;;5012917;28;20033;-84
2022/01/04 02:50:06;;;;;;;4.97;2.88;;;;;;;;;;5015303;28;20025;-84
2022/01/04 02:52:33;;;;;;;5.82;2.72;;;;;;;;;;5033099;28;20095;-83
2022/01/04 02:55:00;;;;;;;6.18;2.80;;;;;;;;;;5032644;28;20029;-83
2022/01/04 02:57:25;;;;;;;4.78;3.05;;;;;;;;;;5035415;28;20116;-83
2022/01/04 02:59:51;;;;;;;4.50;2.10;;;;;;;;;;5032897;28;20026;-83
2022/01/04 03:02:16;;;;;;;3.55;2.03;;;;;;;;;;5032625;28;20385;-83
2022/01/04 03:04:42;;;;;;;3.97;1.95;;;;;;;;;;5032428;28;20151;-83
2022/01/04 03:07:07;;;;;;;6.10;2.28;;;;;;;;;;5032145;28;20033;-83
2022/01/04 03:09:33;;;;;;;4.93;2.00;;;;;;;;;;5015157;28;20040;-83
2022/01/04 03:11:59;;;;;;;4.30;1.58;;;;;;;;;;5032559;28;20477;-83
2022/01/04 03:14:24;;;;;;;2.55;1.30;;;;;;;;;;5032544;28;20496;-83
2022/01/04 03:16:50;;;;;;;4.28;1.63;;;;;;;;;;5030535;28;20065;-83
2022/01/04 03:19:15;;;;;;;1.40;0.85;;;;;;;;;;5014630;28;20448;-83
2022/01/04 03:21:43;;;;;;;3.90;1.98;;;;;;;;;;5011550;28;20054;-85
2022/01/04 03:24:11;;;;;;;2.05;1.00;;;;;;;;;;5014862;28;20088;-82
2022/01/04 03:26:37;;;;;;;2.10;1.17;;;;;;;;;;5015406;28;20825;-83
2022/01/04 03:29:05;;;;;;;2.50;1.73;;;;;;;;;;4994636;28;20034;-82
2022/01/04 03:31:31;;;;;;;2.15;1.40;;;;;;;;;;5012504;28;20036;-83
2022/01/04 03:33:57;;;;;;;2.05;1.15;;;;;;;;;;4998839;28;20033;-84
2022/01/04 03:36:25;;;;;;;3.78;1.10;;;;;;;;;;5012601;28;20089;-82
2022/01/04 03:38:55;;;;;;;3.00;1.20;;;;;;;;;;5013358;28;20033;-83
2022/01/04 03:41:22;;;;;;;4.43;1.38;;;;;;;;;;5008682;28;20037;-82
2022/01/04 03:43:49;;;;;;;3.05;1.15;;;;;;;;;;5012034;28;20034;-82
2022/01/04 03:46:14;;;;;;;1.55;1.00;;;;;;;;;;5015807;28;20029;-82
2022/01/04 03:48:40;;;;;;;2.42;1.40;;;;;;;;;;5012284;28;20366;-83
2022/01/04 03:51:06;;;;;;;2.42;1.33;;;;;;;;;;5012523;28;20021;-83
2022/01/04 03:53:32;;;;;;;4.40;1.95;;;;;;;;;;5015462;28;20179;-81
2022/01/04 03:55:58;;;;;;;4.95;1.80;;;;;;;;;;5013212;28;20113;-81
2022/01/04 03:58:23;;;;;;;4.68;1.70;;;;;;;;;;5014144;28;20037;-81
2022/01/04 04:00:49;;;;;;;3.03;1.80;;;;;;;;;;5011910;28;20028;-82
2022/01/04 04:03:15;;;;;;;4.65;1.92;;;;;;;;;;5012111;28;20029;-82
2022/01/04 04:05:41;;;;;;;2.63;1.27;;;;;;;;;;5014207;28;20026;-83
2022/01/04 04:08:06;;;;;;;4.15;1.65;;;;;;;;;;4991287;28;20026;-82
2022/01/04 04:10:32;;;;;;;2.83;1.60;;;;;;;;;;5011863;28;20025;-82
2022/01/04 04:12:57;;;;;;;2.72;1.70;;;;;;;;;;4996179;28;20499;-81
2022/01/04 04:15:23;;;;;;;3.60;1.70;;;;;;;;;;5011818;28;20030;-83
2022/01/04 04:17:48;;;;;;;5.38;2.38;;;;;;;;;;5013289;28;20973;-81
2022/01/04 04:20:14;;;;;;;4.93;2.05;;;;;;;;;;4994247;28;20025;-82
2022/01/04 04:22:40;;;;;;;3.72;1.55;;;;;;;;;;5009604;28;20081;-82
2022/01/04 04:25:07;;;;;;;3.35;1.33;;;;;;;;;;5031486;28;20026;-81
2022/01/04 04:27:32;;;;;;;3.17;1.30;;;;;;;;;;5014456;28;20025;-83
2022/01/04 04:29:58;;;;;;;2.53;1.48;;;;;;;;;;5013718;28;20028;-83
2022/01/04 04:32:24;;;;;;;4.53;1.70;;;;;;;;;;5031106;28;20029;-81
2022/01/04 04:34:50;;;;;;;3.40;1.63;;;;;;;;;;5031348;28;20374;-82
2022/01/04 04:37:15;;;;;;;4.82;2.30;;;;;;;;;;5031006;28;20040;-84
2022/01/04 04:39:41;;;;;;;4.93;2.45;;;;;;;;;;5031097;28;20398;-84
2022/01/04 04:42:07;;;;;;;7.28;3.75;;;;;;;;;;5013332;28;20065;-84
2022/01/04 04:44:32;;;;;;;6.65;2.72;;;;;;;;;;5031342;28;20026;-84
2022/01/04 04:46:58;;;;;;;9.00;4.35;;;;;;;;;;5031296;28;20017;-84
2022/01/04 04:49:24;;;;;;;10.95;6.65;;;;;;;;;;5031520;28;20033;-84
2022/01/04 04:51:49;;;;;;;7.55;4.55;;;;;;;;;;5034456;28;20034;-84
2022/01/04 04:54:15;;;;;;;10.98;6.68;;;;;;;;;;5017843;28;20037;-83
2022/01/04 04:56:40;;;;;;;9.25;5.95;;;;;;;;;;5035339;28;20021;-84
2022/01/04 04:59:07;;;;;;;6.60;3.08;;;;;;;;;;5034870;28;20032;-83
2022/01/04 05:01:32;;;;;;;5.10;1.80;;;;;;;;;;5035186;28;20068;-83
2022/01/04 05:03:58;;;;;;;5.70;2.88;;;;;;;;;;5035134;28;20481;-83
2022/01/04 05:06:25;;;;;;;4.75;2.65;;;;;;;;;;5035095;28;20025;-83
2022/01/04 05:08:51;;;;;;;7.55;2.67;;;;;;;;;;5017033;28;20025;-83
2022/01/04 05:11:16;;;;;;;2.13;1.52;;;;;;;;;;5034685;28;20025;-84
2022/01/04 05:13:42;;;;;;;3.22;1.70;;;;;;;;;;5035015;28;20024;-84
2022/01/04 05:16:07;;;;;;;6.60;2.45;;;;;;;;;;5034431;28;20040;-82
2022/01/04 05:18:33;;;;;;;4.80;2.60;;;;;;;;;;5034762;28;20033;-83
2022/01/04 05:20:58;;;;;;;12.93;5.95;;;;;;;;;;5034157;28;20018;-84
2022/01/04 05:23:24;;;;;;;16.08;5.72;;;;;;;;;;5033916;28;20524;-83
2022/01/04 05:25:49;;;;;;;8.45;4.75;;;;;;;;;;5033739;28;20025;-83
2022/01/04 05:28:15;;;;;;;8.55;3.75;;;;;;;;;;5034388;28;20032;-83
2022/01/04 05:30:41;;;;;;;5.43;2.45;;;;;;;;;;5016500;28;20406;-83
2022/01/04 05:33:07;;;;;;;4.40;1.88;;;;;;;;;;5033248;28;20529;-81
2022/01/04 05:35:32;;;;;;;4.80;2.28;;;;;;;;;;5034179;28;20100;-84
2022/01/04 05:37:58;;;;;;;4.53;2.42;;;;;;;;;;5034261;28;20110;-83
2022/01/04 05:40:23;;;;;;;3.13;1.48;;;;;;;;;;5016343;28;20030;-83
2022/01/04 05:42:49;;;;;;;2.58;1.67;;;;;;;;;;5034361;28;20057;-83
2022/01/04 05:45:14;;;;;;;4.03;1.33;;;;;;;;;;5033705;28;20028;-83
2022/01/04 05:47:40;;;;;;;4.03;1.48;;;;;;;;;;5033901;28;20025;-82
2022/01/04 05:50:06;;;;;;;3.17;1.60;;;;;;;;;;5034014;28;20417;-82
2022/01/04 05:52:33;;;;;;;3.15;1.30;;;;;;;;;;5033924;28;20087;-85
2022/01/04 05:54:58;;;;;;;3.10;1.63;;;;;;;;;;5018877;28;20422;-82
2022/01/04 05:57:24;;;;;;;5.53;2.05;;;;;;;;;;5030857;28;20060;-83
2022/01/04 05:59:50;;;;;;;2.88;1.42;;;;;;;;;;5013357;28;20025;-82
2022/01/04 06:02:16;;;;;;;2.80;1.58;;;;;;;;;;5030693;28;20025;-82
2022/01/04 06:04:42;;;;;;;4.93;1.40;;;;;;;;;;5032251;28;20030;-83
2022/01/04 06:07:07;;;;;;;2.53;1.23;;;;;;;;;;5032207;28;20057;-82
2022/01/04 06:09:42;;;;;;;3.45;1.70;;;;;;;;;;5028816;28;20539;-82
2022/01/04 06:14:54;;;;;;;3.13;1.70;;;;;;;;;;5033411;28;20025;-83
2022/01/04 06:17:26;;;;;;;2.83;1.70;;;;;;;;;;5015418;28;20029;-83
2022/01/04 06:19:51;;;;;;;3.55;1.95;;;;;;;;;;5020914;28;20116;-84
2022/01/04 06:22:17;;;;;;;4.30;1.80;;;;;;;;;;5032745;28;20124;-84
2022/01/04 06:24:43;;;;;;;3.28;1.88;;;;;;;;;;5032942;28;20022;-84
2022/01/04 06:27:15;;;;;;;3.13;1.98;;;;;;;;;;5032153;28;20462;-85
2022/01/04 06:29:41;;;;;;;3.92;1.50;;;;;;;;;;5025608;28;20048;-84
2022/01/04 06:32:07;;;;;;;3.67;1.52;;;;;;;;;;5029329;28;20037;-84
2022/01/04 06:34:34;;;;;;;4.05;1.73;;;;;;;;;;5015135;28;20032;-84
2022/01/04 06:37:00;;;;;;;2.80;1.00;;;;;;;;;;5031968;28;20355;-84
2022/01/04 06:39:27;;;;;;;2.53;1.60;;;;;;;;;;5011368;28;20045;-84
2022/01/04 06:41:53;;;;;;;3.38;1.77;;;;;;;;;;5012688;28;20048;-84
2022/01/04 06:44:18;;;;;;;4.05;1.75;;;;;;;;;;5005855;28;20029;-85
2022/01/04 06:46:45;;;;;;;9.45;1.92;;;;;;;;;;5030318;28;20481;-84
2022/01/04 06:49:16;;;;;;;8.02;5.15;;;;;;;;;;5030015;28;20143;-83
2022/01/04 06:51:42;;;;;;;3.88;3.15;;;;;;;;;;5031166;28;20064;-84
2022/01/04 06:54:09;;;;;;;3.97;2.58;;;;;;;;;;5028786;28;20033;-83
2022/01/04 06:56:35;;;;;;;4.97;2.72;;;;;;;;;;5030942;28;20033;-84
2022/01/04 06:59:01;;;;;;;3.95;1.98;;;;;;;;;;5028594;28;20025;-83
2022/01/04 07:01:27;;;;;;;6.30;1.77;;;;;;;;;;5012221;28;20083;-83
2022/01/04 07:03:52;;;;;;;4.15;1.42;;;;;;;;;;5030427;28;20029;-84
2022/01/04 07:06:18;;;;;;;117.18;56.40;;;;;;;;;;5028554;28;20133;-84
2022/01/04 07:08:43;;;;;;;64.32;29.45;;;;;;;;;;5027098;28;20033;-83
2022/01/04 07:11:09;;;;;;;74.03;32.97;;;;;;;;;;5023984;28;20032;-83
2022/01/04 07:13:34;;;;;;;9.25;5.18;;;;;;;;;;5010590;28;20104;-81
2022/01/04 07:16:00;;;;;;;4.72;3.35;;;;;;;;;;5031692;28;20029;-80
2022/01/04 07:18:25;;;;;;;7.05;5.00;;;;;;;;;;5029052;28;20040;-80
2022/01/04 07:20:51;;;;;;;8.55;4.43;;;;;;;;;;5027075;28;20052;-81
2022/01/04 07:23:17;;;;;;;8.32;4.75;;;;;;;;;;5013144;28;20043;-80
2022/01/04 07:25:42;;;;;;;9.48;4.85;;;;;;;;;;5029645;28;20044;-81
2022/01/04 07:28:08;;;;;;;5.25;4.00;;;;;;;;;;5011737;28;20021;-81
2022/01/04 07:30:34;;;;;;;43.80;21.70;;;;;;;;;;5027616;28;20025;-83
2022/01/04 07:33:00;;;;;;;26.98;14.25;;;;;;;;;;5026146;28;20116;-83
2022/01/04 07:35:25;;;;;;;35.08;16.92;;;;;;;;;;5006723;28;20115;-81
2022/01/04 07:37:51;;;;;;;24.52;14.60;;;;;;;;;;5030263;28;20109;-83
2022/01/04 07:40:17;;;;;;;30.50;14.43;;;;;;;;;;5025893;28;20052;-83
2022/01/04 07:42:43;;;;;;;24.95;13.23;;;;;;;;;;5030013;28;20026;-83
2022/01/04 07:45:09;;;;;;;82.68;43.35;;;;;;;;;;5030149;28;20028;-80
2022/01/04 07:47:34;;;;;;;50.13;25.25;;;;;;;;;;5026461;28;20033;-81
2022/01/04 07:50:00;;;;;;;64.65;30.45;;;;;;;;;;5029659;28;20480;-81
2022/01/04 07:52:26;;;;;;;69.38;30.92;;;;;;;;;;5029131;28;20049;-81
2022/01/04 07:54:51;;;;;;;66.13;30.42;;;;;;;;;;5030487;28;20529;-81
2022/01/04 07:57:17;;;;;;;62.78;31.63;;;;;;;;;;5029692;28;21073;-82
2022/01/04 07:59:42;;;;;;;40.22;20.10;;;;;;;;;;5030861;28;20715;-80
2022/01/04 08:02:08;;;;;;;35.10;16.33;;;;;;;;;;5012869;28;20521;-85
2022/01/04 08:04:33;;;;;;;38.83;21.08;;;;;;;;;;5028060;28;20033;-82
2022/01/04 08:06:59;;;;;;;50.22;22.85;;;;;;;;;;5013129;28;20025;-84
2022/01/04 08:09:25;;;;;;;57.80;24.58;;;;;;;;;;5030188;28;20103;-82
2022/01/04 08:11:51;;;;;;;56.55;25.58;;;;;;;;;;5028228;28;20100;-81
2022/01/04 08:14:17;;;;;;;44.03;22.88;;;;;;;;;;5011405;28;20033;-82
2022/01/04 08:16:42;;;;;;;51.92;24.58;;;;;;;;;;5034287;28;20037;-82
2022/01/04 08:19:08;;;;;;;50.38;23.77;;;;;;;;;;5011686;28;20385;-82
2022/01/04 08:21:34;;;;;;;42.80;26.10;;;;;;;;;;5030238;28;20030;-82
2022/01/04 08:23:59;;;;;;;58.28;26.95;;;;;;;;;;5029823;28;20434;-81
2022/01/04 08:26:26;;;;;;;51.38;25.85;;;;;;;;;;5038002;28;20079;-84
2022/01/04 08:28:51;;;;;;;71.38;32.28;;;;;;;;;;5035140;28;20017;-82
2022/01/04 08:31:17;;;;;;;53.22;26.30;;;;;;;;;;5035222;28;20500;-82
2022/01/04 08:33:42;;;;;;;53.70;27.45;;;;;;;;;;5034969;28;20086;-80
2022/01/04 08:36:10;;;;;;;63.75;31.00;;;;;;;;;;5017540;28;20036;-83
2022/01/04 08:38:36;;;;;;;49.17;27.25;;;;;;;;;;5032422;28;20501;-84
2022/01/04 08:41:01;;;;;;;57.17;29.02;;;;;;;;;;5034219;28;20029;-84
2022/01/04 08:43:27;;;;;;;59.40;29.20;;;;;;;;;;5034000;28;20490;-82
2022/01/04 08:45:53;;;;;;;45.70;26.95;;;;;;;;;;5031308;28;20032;-84
2022/01/04 08:48:18;;;;;;;54.35;28.02;;;;;;;;;;5016239;28;20480;-83
2022/01/04 08:50:44;;;;;;;68.93;39.30;;;;;;;;;;5013913;28;20071;-82
2022/01/04 08:53:12;;;;;;;144.57;63.25;;;;;;;;;;5027405;28;20102;-83
2022/01/04 08:55:38;;;;;;;125.82;56.92;;;;;;;;;;5025554;28;20128;-82
2022/01/04 08:58:04;;;;;;;117.05;48.40;;;;;;;;;;5028433;28;20029;-82
2022/01/04 09:00:30;;;;;;;57.55;30.15;;;;;;;;;;5020453;28;20033;-83
2022/01/04 09:02:55;;;;;;;52.15;28.83;;;;;;;;;;5012845;28;20608;-82
2022/01/04 09:05:21;;;;;;;48.50;28.17;;;;;;;;;;5027570;28;20120;-84
2022/01/04 09:07:48;;;;;;;61.63;31.75;;;;;;;;;;5015261;28;20113;-82
2022/01/04 09:10:13;;;;;;;57.22;30.60;;;;;;;;;;5027605;28;20029;-83
2022/01/04 09:13:02;;;;;;;56.25;31.25;;;;;;;;;;5005642;28;20041;-83
2022/01/04 09:20:49;;;;;;;51.15;29.38;;;;;;;;;;5026882;28;20048;-83
2022/01/04 09:23:18;;;;;;;60.17;33.00;;;;;;;;;;5007134;28;20041;-82
2022/01/04 09:25:45;;;;;;;56.80;32.40;;;;;;;;;;5023823;28;20449;-81
2022/01/04 09:28:11;;;;;;;57.85;30.98;;;;;;;;;;5026307;28;20035;-83
2022/01/04 09:30:38;;;;;;;61.65;31.50;;;;;;;;;;5024595;28;20026;-81
2022/01/04 09:33:05;;;;;;;53.15;31.80;;;;;;;;;;5029738;28;20033;-82
2022/01/04 09:35:32;;;;;;;59.70;31.58;;;;;;;;;;5025474;28;20021;-81
2022/01/04 09:37:58;;;;;;;50.63;29.60;;;;;;;;;;5014848;28;20026;-81
2022/01/04 09:40:24;;;;;;;54.65;28.60;;;;;;;;;;5030210;28;20060;-82
2022/01/04 09:42:50;;;;;;;54.33;29.38;;;;;;;;;;5030734;28;20045;-80
2022/01/04 09:45:16;;;;;;;49.65;27.50;;;;;;;;;;5012816;28;20026;-81
2022/01/04 09:47:41;;;;;;;43.80;28.38;;;;;;;;;;5026975;28;20026;-83
2022/01/04 09:50:10;;;;;;;52.67;28.38;;;;;;;;;;5024545;28;20039;-82
2022/01/04 09:52:42;;;;;;;136.38;74.00;;;;;;;;;;5027514;28;20044;-81
2022/01/04 09:55:10;;;;;;;54.28;33.97;;;;;;;;;;5026661;28;20371;-81
2022/01/04 09:57:35;;;;;;;42.60;26.15;;;;;;;;;;5014538;28;20374;-83
2022/01/04 10:00:06;;;;;;;37.53;22.50;;;;;;;;;;5016730;28;20175;-80
2022/01/04 10:02:32;;;;;;;39.03;24.52;;;;;;;;;;5030329;28;20112;-81
2022/01/04 10:05:20;;;;;;;38.58;24.02;;;;;;;;;;5026292;28;20113;-82
2022/01/04 10:07:48;;;;;;;36.38;23.17;;;;;;;;;;5027943;28;20052;-81
2022/01/04 10:10:17;;;;;;;50.85;26.92;;;;;;;;;;5031852;28;20037;-81
2022/01/04 10:12:59;;;;;;;45.67;24.20;;;;;;;;;;5027270;28;20022;-80
2022/01/04 10:15:39;;;;;;;37.33;21.10;;;;;;;;;;5012712;28;20381;-81
2022/01/04 10:18:14;;;;;;;39.03;22.48;;;;;;;;;;5023040;28;20088;-80
2022/01/04 10:20:40;;;;;;;42.97;25.35;;;;;;;;;;5009702;28;20033;-82
2022/01/04 10:23:11;;;;;;;41.65;24.67;;;;;;;;;;5000439;28;20514;-82
2022/01/04 10:25:37;;;;;;;39.38;22.67;;;;;;;;;;5009290;28;20387;-81
2022/01/04 10:28:04;;;;;;;37.25;22.08;;;;;;;;;;5008836;28;20041;-80
2022/01/04 10:30:33;;;;;;;39.63;23.80;;;;;;;;;;4993967;28;20385;-81
2022/01/04 10:33:10;;;;;;;40.55;25.05;;;;;;;;;;5016238;28;20083;-80
2022/01/04 10:35:42;;;;;;;43.15;23.35;;;;;;;;;;5018566;28;20058;-81
2022/01/04 10:38:12;;;;;;;36.33;21.50;;;;;;;;;;5019133;28;20450;-81
2022/01/04 10:40:39;;;;;;;43.95;22.60;;;;;;;;;;5017402;28;20132;-80
2022/01/04 10:43:16;;;;;;;34.28;21.52;;;;;;;;;;5011570;28;20044;-81
2022/01/04 10:45:45;;;;;;;32.35;21.05;;;;;;;;;;5016094;28;20029;-81
2022/01/04 10:48:15;;;;;;;36.22;21.50;;;;;;;;;;5016643;28;20112;-80
2022/01/04 10:50:42;;;;;;;34.67;20.25;;;;;;;;;;5018700;28;20041;-81
2022/01/04 10:53:24;;;;;;;37.80;20.25;;;;;;;;;;5012872;28;20081;-80
2022/01/04 10:55:54;;;;;;;30.42;19.55;;;;;;;;;;5019933;28;20033;-81
2022/01/04 10:58:30;;;;;;;39.00;23.65;;;;;;;;;;5006494;28;20081;-82
2022/01/04 11:00:58;;;;;;;37.45;21.45;;;;;;;;;;5012916;28;20081;-80
2022/01/04 11:03:26;;;;;;;29.85;18.70;;;;;;;;;;5012413;28;20032;-82
2022/01/04 11:05:56;;;;;;;29.05;19.38;;;;;;;;;;5003760;28;20022;-81
2022/01/04 11:08:22;;;;;;;32.88;19.35;;;;;;;;;;5013828;28;20029;-81
2022/01/04 11:10:49;;;;;;;31.23;18.08;;;;;;;;;;5013296;28;20486;-81
2022/01/04 11:13:15;;;;;;;29.30;18.20;;;;;;;;;;5008797;28;20046;-80
2022/01/04 11:15:42;;;;;;;28.77;16.55;;;;;;;;;;5012699;28;20022;-81
2022/01/04 11:18:10;;;;;;;29.20;17.63;;;;;;;;;;5015771;28;20075;-81
2022/01/04 11:20:39;;;;;;;28.58;17.50;;;;;;;;;;5008451;28;20064;-80
2022/01/04 11:23:06;;;;;;;30.55;18.75;;;;;;;;;;5016285;28;20379;-80
2022/01/04 11:25:32;;;;;;;36.60;19.23;;;;;;;;;;5012532;28;20026;-86
2022/01/04 11:28:01;;;;;;;32.17;19.98;;;;;;;;;;4995461;28;20025;-87
2022/01/04 11:30:38;;;;;;;33.38;20.05;;;;;;;;;;5011685;28;20080;-88
2022/01/04 11:33:09;;;;;;;40.63;21.27;;;;;;;;;;5013506;28;20021;-83
2022/01/04 11:35:35;;;;;;;31.52;18.60;;;;;;;;;;4995270;28;20056;-80
2022/01/04 11:38:00;;;;;;;42.60;20.30;;;;;;;;;;5010699;28;20554;-80
2022/01/04 11:40:40;;;;;;;30.55;17.17;;;;;;;;;;5012119;28;20497;-81
2022/01/04 11:43:25;;;;;;;33.75;17.23;;;;;;;;;;4994640;28;20033;-82
2022/01/04 11:45:51;;;;;;;33.03;18.45;;;;;;;;;;5011847;28;20041;-84
2022/01/04 11:48:32;;;;;;;31.10;19.55;;;;;;;;;;5007318;28;20030;-83
2022/01/04 11:51:28;;;;;;;36.20;19.13;;;;;;;;;;5008924;28;20359;-80
2022/01/04 11:54:23;;;;;;;41.83;25.05;;;;;;;;;;5015036;28;20478;-82
2022/01/04 11:56:52;;;;;;;30.00;18.17;;;;;;;;;;5012786;28;20417;-83
2022/01/04 11:59:23;;;;;;;30.05;18.02;;;;;;;;;;4993781;28;20528;-81
2022/01/04 12:01:50;;;;;;;31.48;16.85;;;;;;;;;;5010979;28;20041;-83
2022/01/04 12:04:54;;;;;;;28.55;16.30;;;;;;;;;;4994220;28;20120;-81
2022/01/04 12:07:38;;;;;;;27.98;14.57;;;;;;;;;;5010211;28;20498;-80
2022/01/04 12:10:19;;;;;;;24.98;14.63;;;;;;;;;;5010993;28;20025;-82
2022/01/04 12:12:54;;;;;;;18.83;12.57;;;;;;;;;;4991972;28;20034;-83
2022/01/04 12:15:36;;;;;;;28.90;15.45;;;;;;;;;;4996118;28;20080;-83
2022/01/04 12:18:03;;;;;;;30.13;16.85;;;;;;;;;;5008607;28;20030;-82
2022/01/04 12:20:47;;;;;;;37.85;21.75;;;;;;;;;;5011973;28;20477;-80
2022/01/04 12:23:33;;;;;;;36.60;20.58;;;;;;;;;;5008053;28;20187;-83
2022/01/04 12:26:04;;;;;;;59.00;31.88;;;;;;;;;;5030569;28;20018;-83
2022/01/04 12:28:37;;;;;;;55.80;31.17;;;;;;;;;;5030759;28;20056;-83
2022/01/04 12:31:20;;;;;;;29.98;16.65;;;;;;;;;;5030962;28;20041;-82
2022/01/04 12:34:04;;;;;;;23.88;15.55;;;;;;;;;;5030370;28;20436;-81
2022/01/04 12:36:34;;;;;;;25.48;14.45;;;;;;;;;;5030779;28;20030;-82
2022/01/04 12:39:09;;;;;;;32.13;20.60;;;;;;;;;;5011636;28;20068;-83
2022/01/04 12:41:37;;;;;;;31.83;22.13;;;;;;;;;;5030849;28;20036;-81
2022/01/04 12:44:05;;;;;;;35.13;23.52;;;;;;;;;;5030806;28;20044;-83
2022/01/04 12:46:35;;;;;;;37.42;21.08;;;;;;;;;;5030652;28;20044;-81
2022/01/04 12:49:08;;;;;;;46.42;27.77;;;;;;;;;;5030594;28;20026;-82
2022/01/04 12:51:39;;;;;;;39.70;20.40;;;;;;;;;;5030387;28;20033;-82
2022/01/04 12:54:09;;;;;;;38.55;16.27;;;;;;;;;;5010481;28;20029;-80
2022/01/04 12:56:43;;;;;;;56.72;27.25;;;;;;;;;;5030369;28;20071;-81
2022/01/04 12:59:24;;;;;;;28.45;16.63;;;;;;;;;;5012931;28;20033;-82
2022/01/04 13:01:52;;;;;;;24.08;11.65;;;;;;;;;;5030722;28;20536;-84
2022/01/04 13:04:23;;;;;;;22.08;10.75;;;;;;;;;;5012932;28;20036;-84
2022/01/04 13:06:49;;;;;;;21.73;11.60;;;;;;;;;;5007549;28;20462;-82
2022/01/04 13:09:22;;;;;;;25.80;14.10;;;;;;;;;;5012969;28;20067;-84
2022/01/04 13:11:55;;;;;;;27.17;13.20;;;;;;;;;;5030870;28;20124;-81
2022/01/04 13:14:25;;;;;;;26.95;12.02;;;;;;;;;;5034250;28;20022;-84
2022/01/04 13:17:01;;;;;;;20.52;11.02;;;;;;;;;;5033998;28;20137;-83
2022/01/04 13:19:28;;;;;;;17.85;8.70;;;;;;;;;;5034063;28;20099;-82
2022/01/04 13:22:07;;;;;;;46.80;22.25;;;;;;;;;;5029345;28;20046;-82
2022/01/04 13:24:36;;;;;;;55.40;18.95;;;;;;;;;;5016098;28;20386;-83
2022/01/04 13:27:25;;;;;;;20.88;10.90;;;;;;;;;;5016755;28;20030;-82
2022/01/04 13:29:55;;;;;;;22.77;9.40;;;;;;;;;;5018756;28;20076;-83
2022/01/04 13:32:22;;;;;;;23.45;10.20;;;;;;;;;;4999992;28;20029;-81
2022/01/04 13:34:48;;;;;;;20.17;10.75;;;;;;;;;;5014049;28;20370;-84
2022/01/04 13:37:14;;;;;;;23.15;11.75;;;;;;;;;;4996058;28;20038;-83
2022/01/04 13:39:39;;;;;;;22.33;11.30;;;;;;;;;;5016534;28;20067;-84
2022/01/04 13:42:35;;;;;;;21.02;10.38;;;;;;;;;;5013638;28;20045;-83
2022/01/04 13:45:08;;;;;;;30.10;11.93;;;;;;;;;;4995973;28;20026;-83
2022/01/04 13:47:36;;;;;;;30.13;14.18;;;;;;;;;;5012096;28;20064;-81
2022/01/04 13:50:39;;;;;;;21.38;10.77;;;;;;;;;;5014066;28;20157;-83
2022/01/04 13:53:19;;;;;;;18.23;10.13;;;;;;;;;;4973983;28;20116;-82
2022/01/04 13:55:47;;;;;;;;;;;;;;;;;;5011829;28;20105;-83
2022/01/04 13:58:53;;;;;;;17.08;10.50;;;;;;;;;;4998473;28;20005;-82
2022/01/04 14:01:19;;;;;;;15.80;9.25;;;;;;;;;;4949056;28;20388;-83
2022/01/04 14:04:06;;;;;;;14.98;8.75;;;;;;;;;;4948343;29;20051;-84
2022/01/04 14:06:33;;;;;;;13.10;7.70;;;;;;;;;;4991814;28;20508;-81
2022/01/04 14:09:05;;;;;;;26.80;11.55;;;;;;;;;;5019416;28;20108;-83
2022/01/04 14:11:38;;;;;;;19.70;9.02;;;;;;;;;;5018787;28;20029;-82
2022/01/04 14:14:25;;;;;;;19.27;8.82;;;;;;;;;;4997522;28;20033;-82
2022/01/04 14:16:56;;;;;;;21.40;7.57;;;;;;;;;;5021940;28;20022;-81
2022/01/04 14:19:23;;;;;;;13.25;6.07;;;;;;;;;;4997041;28;20033;-82
2022/01/04 14:22:00;;;;;;;25.63;11.40;;;;;;;;;;5017610;28;20459;-82
2022/01/04 14:24:37;;;;;;;27.27;10.95;;;;;;;;;;5030095;28;20026;-80
2022/01/04 14:27:08;;;;;;;38.53;16.13;;;;;;;;;;5032832;28;20026;-80
2022/01/04 14:29:42;;;;;;;;;;;;;;;;;;5033060;28;20100;-83
2022/01/04 14:32:18;;;;;;;27.27;10.95;;;;;;;;;;5032753;28;19999;-83
2022/01/04 14:34:45;;;;;;;32.35;14.45;;;;;;;;;;5030811;28;20454;-81
2022/01/04 14:37:11;;;;;;;21.90;8.75;;;;;;;;;;5015098;28;20473;-82
2022/01/04 14:39:37;;;;;;;18.13;8.60;;;;;;;;;;5014843;28;20389;-82
2022/01/04 14:42:03;;;;;;;22.63;7.90;;;;;;;;;;5035989;28;20025;-81
2022/01/04 14:44:29;;;;;;;18.73;9.73;;;;;;;;;;5030085;28;20033;-85
2022/01/04 14:46:56;;;;;;;13.95;7.45;;;;;;;;;;5014911;28;20053;-82
2022/01/04 14:49:22;;;;;;;15.23;7.30;;;;;;;;;;5032384;28;20029;-83
2022/01/04 14:51:48;;;;;;;13.68;7.47;;;;;;;;;;5031664;28;20564;-83